WZZ13WH EYVI-ENBR
Flight info
| Callsign | WZZ13WH |
|---|---|
| Flight time | 1h 55m |
| Altitude | 36000 |
| Route | ELEKA DCT DOKOT DCT PESUR |
| Aircraft | A321/M-SDE3FGHIRWY/LB1 |
Departure
| Time | 2026-04-28 18:25 |
|---|---|
| Airport | Vilnius International Airport (EYVI) |
Arrival
| Time | 2026-04-28 20:21 |
|---|---|
| Airport | Bergen Airport, Flesland (ENBR) |
| Time | Latitude | Longitude | Altitude | Speed | Heading |
|---|---|---|---|---|---|
| 2026-04-28 18:01 | 54.64454 | 25.28518 | 634 ft | 0 kts | 178° |
| 2026-04-28 18:19 | 54.64436 | 25.28519 | 634 ft | 4 kts | 178° |
| 2026-04-28 18:19 | 54.64434 | 25.28519 | 633 ft | 0 kts | 178° |
| 2026-04-28 18:19 | 54.64421 | 25.28533 | 634 ft | 2 kts | 130° |
| 2026-04-28 18:19 | 54.64413 | 25.28571 | 635 ft | 4 kts | 95° |
| 2026-04-28 18:20 | 54.64407 | 25.28614 | 635 ft | 3 kts | 127° |
| 2026-04-28 18:20 | 54.64389 | 25.28639 | 636 ft | 3 kts | 150° |
| 2026-04-28 18:20 | 54.64362 | 25.28653 | 636 ft | 5 kts | 168° |
| 2026-04-28 18:20 | 54.64323 | 25.28663 | 636 ft | 6 kts | 174° |
| 2026-04-28 18:21 | 54.64269 | 25.28671 | 635 ft | 9 kts | 174° |
| 2026-04-28 18:21 | 54.64196 | 25.28683 | 634 ft | 11 kts | 174° |
| 2026-04-28 18:21 | 54.64106 | 25.28697 | 631 ft | 14 kts | 175° |
| 2026-04-28 18:21 | 54.63996 | 25.28672 | 626 ft | 18 kts | 199° |
| 2026-04-28 18:22 | 54.63871 | 25.28586 | 620 ft | 21 kts | 202° |
| 2026-04-28 18:22 | 54.63722 | 25.28481 | 612 ft | 24 kts | 202° |
| 2026-04-28 18:22 | 54.63560 | 25.28369 | 605 ft | 21 kts | 201° |
| 2026-04-28 18:22 | 54.63423 | 25.28274 | 600 ft | 22 kts | 202° |
| 2026-04-28 18:23 | 54.63278 | 25.28174 | 597 ft | 22 kts | 201° |
| 2026-04-28 18:23 | 54.63128 | 25.28069 | 594 ft | 23 kts | 201° |
| 2026-04-28 18:23 | 54.63033 | 25.28006 | 593 ft | 7 kts | 192° |
| 2026-04-28 18:23 | 54.62986 | 25.28050 | 591 ft | 10 kts | 109° |
| 2026-04-28 18:24 | 54.62956 | 25.28185 | 588 ft | 8 kts | 113° |
| 2026-04-28 18:24 | 54.62946 | 25.28231 | 588 ft | 4 kts | 98° |
| 2026-04-28 18:24 | 54.62962 | 25.28264 | 588 ft | 0 kts | 21° |
| 2026-04-28 18:24 | 54.63035 | 25.28313 | 590 ft | 46 kts | 21° |
| 2026-04-28 18:25 | 54.63618 | 25.28717 | 613 ft | 130 kts | 22° |
| 2026-04-28 18:25 | 54.64603 | 25.29414 | 993 ft | 166 kts | 17° |
| 2026-04-28 18:25 | 54.65693 | 25.30100 | 1934 ft | 171 kts | 20° |
| 2026-04-28 18:26 | 54.67837 | 25.31032 | 3723 ft | 181 kts | 334° |
| 2026-04-28 18:26 | 54.68663 | 25.29266 | 4338 ft | 214 kts | 291° |
| 2026-04-28 18:26 | 54.68957 | 25.26599 | 5119 ft | 231 kts | 287° |
| 2026-04-28 18:26 | 54.69443 | 25.23936 | 5651 ft | 241 kts | 294° |
| 2026-04-28 18:27 | 54.70062 | 25.21143 | 6256 ft | 252 kts | 295° |
| 2026-04-28 18:27 | 54.70676 | 25.18299 | 7067 ft | 254 kts | 294° |
| 2026-04-28 18:27 | 54.71268 | 25.15434 | 7849 ft | 256 kts | 292° |
| 2026-04-28 18:27 | 54.71848 | 25.12531 | 8600 ft | 260 kts | 292° |
| 2026-04-28 18:28 | 54.72427 | 25.09567 | 9351 ft | 262 kts | 291° |
| 2026-04-28 18:28 | 54.73006 | 25.06560 | 10083 ft | 265 kts | 291° |
| 2026-04-28 18:28 | 54.73589 | 25.03504 | 10693 ft | 272 kts | 291° |
| 2026-04-28 18:28 | 54.74191 | 25.00337 | 11023 ft | 288 kts | 291° |
| 2026-04-28 18:29 | 54.74828 | 24.96972 | 11498 ft | 298 kts | 291° |
| 2026-04-28 18:29 | 54.75474 | 24.93532 | 12164 ft | 302 kts | 291° |
| 2026-04-28 18:29 | 54.76126 | 24.90051 | 12821 ft | 305 kts | 291° |
| 2026-04-28 18:29 | 54.76781 | 24.86544 | 13459 ft | 309 kts | 291° |
| 2026-04-28 18:30 | 54.77445 | 24.83000 | 14066 ft | 313 kts | 291° |
| 2026-04-28 18:30 | 54.77666 | 24.81813 | 14269 ft | 314 kts | 291° |
| 2026-04-28 18:30 | 54.78798 | 24.75746 | 15240 ft | 321 kts | 291° |
| 2026-04-28 18:30 | 54.79495 | 24.72097 | 15948 ft | 325 kts | 294° |
| 2026-04-28 18:31 | 54.80444 | 24.68581 | 16823 ft | 324 kts | 302° |
| 2026-04-28 18:31 | 54.81696 | 24.65328 | 17657 ft | 325 kts | 309° |
| 2026-04-28 18:31 | 54.83081 | 24.62242 | 18298 ft | 326 kts | 311° |
| 2026-04-28 18:31 | 54.84486 | 24.59183 | 18770 ft | 330 kts | 311° |
| 2026-04-28 18:32 | 54.85916 | 24.56071 | 19282 ft | 333 kts | 311° |
| 2026-04-28 18:32 | 54.87368 | 24.52902 | 19786 ft | 336 kts | 311° |
| 2026-04-28 18:32 | 54.88824 | 24.49714 | 20278 ft | 339 kts | 311° |
| 2026-04-28 18:32 | 54.90299 | 24.46477 | 20778 ft | 341 kts | 310° |
| 2026-04-28 18:33 | 54.91760 | 24.43260 | 21259 ft | 344 kts | 310° |
| 2026-04-28 18:33 | 54.93248 | 24.39979 | 21740 ft | 346 kts | 311° |
| 2026-04-28 18:33 | 54.94736 | 24.36692 | 22220 ft | 348 kts | 311° |
| 2026-04-28 18:33 | 54.96239 | 24.33367 | 22688 ft | 350 kts | 310° |
| 2026-04-28 18:34 | 54.97739 | 24.30046 | 23125 ft | 353 kts | 310° |
| 2026-04-28 18:34 | 54.99271 | 24.26648 | 23554 ft | 356 kts | 310° |
| 2026-04-28 18:34 | 55.00795 | 24.23264 | 23998 ft | 357 kts | 310° |
| 2026-04-28 18:34 | 55.02336 | 24.19837 | 24421 ft | 359 kts | 310° |
| 2026-04-28 18:35 | 55.03890 | 24.16374 | 24822 ft | 361 kts | 310° |
| 2026-04-28 18:35 | 55.05429 | 24.12941 | 25190 ft | 364 kts | 310° |
| 2026-04-28 18:35 | 55.07011 | 24.09408 | 25533 ft | 366 kts | 310° |
| 2026-04-28 18:35 | 55.08569 | 24.05924 | 25865 ft | 368 kts | 310° |
| 2026-04-28 18:36 | 55.10165 | 24.02347 | 26184 ft | 370 kts | 310° |
| 2026-04-28 18:36 | 55.11746 | 23.98800 | 26492 ft | 372 kts | 310° |
| 2026-04-28 18:36 | 55.13337 | 23.95225 | 26782 ft | 373 kts | 310° |
| 2026-04-28 18:36 | 55.14919 | 23.91666 | 27059 ft | 375 kts | 310° |
| 2026-04-28 18:37 | 55.16538 | 23.88016 | 27338 ft | 377 kts | 310° |
| 2026-04-28 18:37 | 55.18157 | 23.84363 | 27602 ft | 379 kts | 310° |
| 2026-04-28 18:37 | 55.19772 | 23.80713 | 27861 ft | 380 kts | 310° |
| 2026-04-28 18:37 | 55.21407 | 23.77011 | 28131 ft | 382 kts | 310° |
| 2026-04-28 18:38 | 55.23038 | 23.73315 | 28386 ft | 384 kts | 310° |
| 2026-04-28 18:38 | 55.24666 | 23.69618 | 28642 ft | 386 kts | 310° |
| 2026-04-28 18:38 | 55.26312 | 23.65874 | 28885 ft | 388 kts | 310° |
| 2026-04-28 18:38 | 55.27969 | 23.62101 | 29111 ft | 389 kts | 310° |
| 2026-04-28 18:39 | 55.29611 | 23.58357 | 29334 ft | 390 kts | 310° |
| 2026-04-28 18:39 | 55.31274 | 23.54558 | 29556 ft | 392 kts | 311° |
| 2026-04-28 18:39 | 55.32942 | 23.50741 | 29773 ft | 393 kts | 311° |
| 2026-04-28 18:39 | 55.34609 | 23.46923 | 30004 ft | 394 kts | 311° |
| 2026-04-28 18:40 | 55.36281 | 23.43084 | 30229 ft | 396 kts | 311° |
| 2026-04-28 18:40 | 55.37944 | 23.39263 | 30437 ft | 398 kts | 311° |
| 2026-04-28 18:40 | 55.39634 | 23.35376 | 30622 ft | 400 kts | 311° |
| 2026-04-28 18:40 | 55.41338 | 23.31445 | 30801 ft | 402 kts | 310° |
| 2026-04-28 18:41 | 55.43033 | 23.27530 | 30979 ft | 404 kts | 310° |
| 2026-04-28 18:41 | 55.44745 | 23.23571 | 31160 ft | 405 kts | 310° |
| 2026-04-28 18:41 | 55.46457 | 23.19602 | 31332 ft | 407 kts | 310° |
| 2026-04-28 18:41 | 55.48188 | 23.15586 | 31507 ft | 409 kts | 310° |
| 2026-04-28 18:42 | 55.49907 | 23.11590 | 31681 ft | 410 kts | 310° |
| 2026-04-28 18:42 | 55.51654 | 23.07523 | 31851 ft | 411 kts | 310° |
| 2026-04-28 18:42 | 55.53384 | 23.03488 | 32019 ft | 413 kts | 310° |
| 2026-04-28 18:42 | 55.55117 | 22.99441 | 32196 ft | 414 kts | 310° |
| 2026-04-28 18:43 | 55.56868 | 22.95347 | 32369 ft | 416 kts | 310° |
| 2026-04-28 18:43 | 55.58601 | 22.91284 | 32572 ft | 416 kts | 310° |
| 2026-04-28 18:43 | 55.60352 | 22.87172 | 32798 ft | 415 kts | 310° |
| 2026-04-28 18:43 | 55.62080 | 22.83104 | 33028 ft | 415 kts | 310° |
| 2026-04-28 18:44 | 55.63824 | 22.78994 | 33245 ft | 415 kts | 310° |
| 2026-04-28 18:44 | 55.67263 | 22.70870 | 33721 ft | 414 kts | 310° |
| 2026-04-28 18:44 | 55.69004 | 22.66748 | 33936 ft | 414 kts | 310° |
| 2026-04-28 18:45 | 55.70748 | 22.62614 | 34135 ft | 414 kts | 310° |
| 2026-04-28 18:45 | 55.72454 | 22.58561 | 34329 ft | 414 kts | 310° |
| 2026-04-28 18:45 | 55.74181 | 22.54452 | 34517 ft | 415 kts | 310° |
| 2026-04-28 18:45 | 55.75919 | 22.50309 | 34694 ft | 416 kts | 310° |
| 2026-04-28 18:46 | 55.77664 | 22.46145 | 34876 ft | 416 kts | 310° |
| 2026-04-28 18:46 | 55.79388 | 22.42024 | 35065 ft | 417 kts | 310° |
| 2026-04-28 18:46 | 55.81113 | 22.37891 | 35253 ft | 417 kts | 310° |
| 2026-04-28 18:46 | 55.82829 | 22.33774 | 35435 ft | 417 kts | 310° |
| 2026-04-28 18:47 | 55.84573 | 22.29580 | 35595 ft | 418 kts | 310° |
| 2026-04-28 18:47 | 55.86293 | 22.25441 | 35735 ft | 419 kts | 309° |
| 2026-04-28 18:47 | 55.88040 | 22.21228 | 35872 ft | 420 kts | 309° |
| 2026-04-28 18:47 | 55.89776 | 22.17031 | 36000 ft | 421 kts | 309° |
| 2026-04-28 18:48 | 55.91517 | 22.12818 | 36122 ft | 422 kts | 309° |
| 2026-04-28 18:48 | 55.93259 | 22.08592 | 36244 ft | 424 kts | 309° |
| 2026-04-28 18:48 | 55.96750 | 22.00104 | 36261 ft | 425 kts | 309° |
| 2026-04-28 18:49 | 55.99072 | 21.94441 | 36266 ft | 425 kts | 309° |
| 2026-04-28 18:49 | 56.03718 | 21.83068 | 36294 ft | 424 kts | 310° |
| 2026-04-28 18:50 | 56.07194 | 21.74531 | 36311 ft | 424 kts | 310° |
| 2026-04-28 18:50 | 56.10674 | 21.65947 | 36318 ft | 423 kts | 310° |
| 2026-04-28 18:51 | 56.14115 | 21.57431 | 36324 ft | 423 kts | 310° |
| 2026-04-28 18:51 | 56.17582 | 21.48815 | 36317 ft | 424 kts | 310° |
| 2026-04-28 18:52 | 56.21032 | 21.40210 | 36318 ft | 423 kts | 310° |
| 2026-04-28 18:52 | 56.24382 | 21.31488 | 36329 ft | 424 kts | 307° |
| 2026-04-28 18:53 | 56.27627 | 21.22637 | 36327 ft | 423 kts | 307° |
| 2026-04-28 18:53 | 56.30854 | 21.13789 | 36330 ft | 423 kts | 307° |
| 2026-04-28 18:54 | 56.34062 | 21.04962 | 36332 ft | 423 kts | 307° |
| 2026-04-28 18:54 | 56.37283 | 20.96065 | 36322 ft | 422 kts | 308° |
| 2026-04-28 18:55 | 56.39958 | 20.88655 | 36318 ft | 422 kts | 307° |
| 2026-04-28 18:55 | 56.43686 | 20.78287 | 36317 ft | 422 kts | 308° |
| 2026-04-28 18:56 | 56.46890 | 20.69347 | 36320 ft | 422 kts | 308° |
| 2026-04-28 18:56 | 56.50068 | 20.60448 | 36346 ft | 422 kts | 308° |
| 2026-04-28 18:57 | 56.53233 | 20.51544 | 36359 ft | 421 kts | 308° |
| 2026-04-28 18:57 | 56.56398 | 20.42613 | 36354 ft | 421 kts | 308° |
| 2026-04-28 18:58 | 56.59541 | 20.33706 | 36359 ft | 421 kts | 307° |
| 2026-04-28 18:58 | 56.62698 | 20.24733 | 36357 ft | 422 kts | 307° |
| 2026-04-28 18:59 | 56.65847 | 20.15743 | 36350 ft | 421 kts | 307° |
| 2026-04-28 18:59 | 56.68981 | 20.06768 | 36362 ft | 421 kts | 307° |
| 2026-04-28 19:00 | 56.72128 | 19.97720 | 36376 ft | 420 kts | 307° |
| 2026-04-28 19:00 | 56.75242 | 19.88726 | 36365 ft | 420 kts | 308° |
| 2026-04-28 19:01 | 56.78357 | 19.79705 | 36357 ft | 420 kts | 307° |
| 2026-04-28 19:01 | 56.81451 | 19.70705 | 36369 ft | 420 kts | 308° |
| 2026-04-28 19:02 | 56.84551 | 19.61662 | 36379 ft | 419 kts | 308° |
| 2026-04-28 19:02 | 56.87631 | 19.52639 | 36393 ft | 418 kts | 308° |
| 2026-04-28 19:03 | 56.90702 | 19.43606 | 36392 ft | 418 kts | 308° |
| 2026-04-28 19:03 | 56.93756 | 19.34587 | 36379 ft | 418 kts | 307° |
| 2026-04-28 19:04 | 56.96814 | 19.25526 | 36387 ft | 418 kts | 307° |
| 2026-04-28 19:04 | 56.99849 | 19.16501 | 36393 ft | 417 kts | 307° |
| 2026-04-28 19:05 | 57.02884 | 19.07432 | 36390 ft | 417 kts | 307° |
| 2026-04-28 19:05 | 57.05912 | 18.98360 | 36385 ft | 417 kts | 307° |
| 2026-04-28 19:06 | 57.08452 | 18.90727 | 36385 ft | 417 kts | 308° |
| 2026-04-28 19:06 | 57.11956 | 18.80144 | 36388 ft | 417 kts | 308° |
| 2026-04-28 19:07 | 57.14965 | 18.71032 | 36431 ft | 421 kts | 307° |
| 2026-04-28 19:07 | 57.16488 | 18.66407 | 36575 ft | 422 kts | 307° |
| 2026-04-28 19:07 | 57.18008 | 18.61776 | 36744 ft | 422 kts | 307° |
| 2026-04-28 19:08 | 57.19533 | 18.57122 | 36914 ft | 421 kts | 307° |
| 2026-04-28 19:08 | 57.21025 | 18.52559 | 37089 ft | 421 kts | 307° |
| 2026-04-28 19:08 | 57.22551 | 18.47883 | 37246 ft | 421 kts | 307° |
| 2026-04-28 19:08 | 57.24048 | 18.43287 | 37372 ft | 422 kts | 307° |
| 2026-04-28 19:09 | 57.25579 | 18.38579 | 37523 ft | 422 kts | 307° |
| 2026-04-28 19:09 | 57.27088 | 18.33927 | 37668 ft | 422 kts | 306° |
| 2026-04-28 19:09 | 57.28580 | 18.29319 | 37778 ft | 423 kts | 306° |
| 2026-04-28 19:09 | 57.30094 | 18.24632 | 37851 ft | 424 kts | 306° |
| 2026-04-28 19:10 | 57.33127 | 18.15225 | 38077 ft | 425 kts | 306° |
| 2026-04-28 19:10 | 57.34632 | 18.10542 | 38193 ft | 425 kts | 306° |
| 2026-04-28 19:10 | 57.36139 | 18.05841 | 38293 ft | 425 kts | 306° |
| 2026-04-28 19:11 | 57.39161 | 17.96390 | 38391 ft | 428 kts | 306° |
| 2026-04-28 19:11 | 57.42191 | 17.86871 | 38400 ft | 429 kts | 306° |
| 2026-04-28 19:12 | 57.45224 | 17.77306 | 38399 ft | 429 kts | 306° |
| 2026-04-28 19:12 | 57.48216 | 17.67826 | 38398 ft | 428 kts | 306° |
| 2026-04-28 19:13 | 57.51242 | 17.58208 | 38398 ft | 428 kts | 306° |
| 2026-04-28 19:13 | 57.54213 | 17.48721 | 38389 ft | 427 kts | 306° |
| 2026-04-28 19:14 | 57.57214 | 17.39114 | 38384 ft | 429 kts | 306° |
| 2026-04-28 19:14 | 57.60200 | 17.29505 | 38381 ft | 430 kts | 306° |
| 2026-04-28 19:15 | 57.63173 | 17.19899 | 38386 ft | 429 kts | 306° |
| 2026-04-28 19:15 | 57.65648 | 17.11867 | 38396 ft | 429 kts | 306° |
| 2026-04-28 19:16 | 57.69108 | 17.00610 | 38401 ft | 427 kts | 306° |
| 2026-04-28 19:16 | 57.72046 | 16.90994 | 38391 ft | 427 kts | 306° |
| 2026-04-28 19:17 | 57.74993 | 16.81318 | 38387 ft | 428 kts | 306° |
| 2026-04-28 19:17 | 57.77940 | 16.71599 | 38379 ft | 428 kts | 306° |
| 2026-04-28 19:18 | 57.80864 | 16.61915 | 38374 ft | 427 kts | 306° |
| 2026-04-28 19:18 | 57.83785 | 16.52206 | 38376 ft | 426 kts | 306° |
| 2026-04-28 19:19 | 57.86694 | 16.42485 | 38381 ft | 426 kts | 306° |
| 2026-04-28 19:19 | 57.89566 | 16.32854 | 38407 ft | 425 kts | 305° |
| 2026-04-28 19:20 | 57.92467 | 16.23080 | 38407 ft | 424 kts | 305° |
| 2026-04-28 19:20 | 57.95333 | 16.13393 | 38382 ft | 424 kts | 305° |
| 2026-04-28 19:21 | 57.98188 | 16.03697 | 38382 ft | 424 kts | 306° |
| 2026-04-28 19:21 | 58.01046 | 15.93952 | 38377 ft | 423 kts | 306° |
| 2026-04-28 19:22 | 58.03409 | 15.85868 | 38383 ft | 423 kts | 306° |
| 2026-04-28 19:22 | 58.06705 | 15.74537 | 38397 ft | 423 kts | 306° |
| 2026-04-28 19:23 | 58.09531 | 15.64777 | 38393 ft | 422 kts | 306° |
| 2026-04-28 19:23 | 58.12344 | 15.55021 | 38391 ft | 422 kts | 306° |
| 2026-04-28 19:24 | 58.15154 | 15.45235 | 38398 ft | 422 kts | 306° |
| 2026-04-28 19:24 | 58.17959 | 15.35429 | 38373 ft | 421 kts | 306° |
| 2026-04-28 19:25 | 58.20745 | 15.25645 | 38378 ft | 422 kts | 305° |
| 2026-04-28 19:25 | 58.23520 | 15.15855 | 38365 ft | 422 kts | 305° |
| 2026-04-28 19:26 | 58.26308 | 15.05981 | 38372 ft | 422 kts | 305° |
| 2026-04-28 19:26 | 58.29068 | 14.96163 | 38384 ft | 422 kts | 305° |
| 2026-04-28 19:27 | 58.31826 | 14.86307 | 38380 ft | 421 kts | 305° |
| 2026-04-28 19:27 | 58.34562 | 14.76488 | 38387 ft | 422 kts | 305° |
| 2026-04-28 19:28 | 58.37264 | 14.66758 | 38387 ft | 422 kts | 305° |
| 2026-04-28 19:28 | 58.39987 | 14.56899 | 38392 ft | 422 kts | 305° |
| 2026-04-28 19:29 | 58.42264 | 14.48620 | 38398 ft | 421 kts | 306° |
| 2026-04-28 19:29 | 58.45420 | 14.37109 | 38394 ft | 421 kts | 306° |
| 2026-04-28 19:30 | 58.48141 | 14.27130 | 38390 ft | 422 kts | 305° |
| 2026-04-28 19:30 | 58.50843 | 14.17180 | 38383 ft | 421 kts | 305° |
| 2026-04-28 19:31 | 58.53541 | 14.07205 | 38386 ft | 420 kts | 305° |
| 2026-04-28 19:31 | 58.56226 | 13.97226 | 38384 ft | 421 kts | 305° |
| 2026-04-28 19:32 | 58.58887 | 13.87293 | 38384 ft | 421 kts | 305° |
| 2026-04-28 19:32 | 58.61552 | 13.77306 | 38384 ft | 421 kts | 305° |
| 2026-04-28 19:33 | 58.64218 | 13.67272 | 38364 ft | 422 kts | 305° |
| 2026-04-28 19:33 | 58.66880 | 13.57204 | 38388 ft | 423 kts | 305° |
| 2026-04-28 19:34 | 58.69529 | 13.47136 | 38392 ft | 422 kts | 305° |
| 2026-04-28 19:34 | 58.72152 | 13.37123 | 38407 ft | 420 kts | 305° |
| 2026-04-28 19:35 | 58.74796 | 13.26991 | 38410 ft | 422 kts | 304° |
| 2026-04-28 19:35 | 58.77430 | 13.16845 | 38415 ft | 422 kts | 304° |
| 2026-04-28 19:36 | 58.80043 | 13.06735 | 38415 ft | 420 kts | 304° |
| 2026-04-28 19:36 | 58.82628 | 12.96693 | 38415 ft | 420 kts | 304° |
| 2026-04-28 19:37 | 58.84797 | 12.88235 | 38420 ft | 420 kts | 304° |
| 2026-04-28 19:37 | 58.87808 | 12.76436 | 38408 ft | 419 kts | 304° |
| 2026-04-28 19:38 | 58.90384 | 12.66289 | 38406 ft | 418 kts | 304° |
| 2026-04-28 19:38 | 58.92929 | 12.56212 | 38402 ft | 419 kts | 304° |
| 2026-04-28 19:39 | 58.95481 | 12.46071 | 38413 ft | 419 kts | 304° |
| 2026-04-28 19:39 | 58.98032 | 12.35881 | 38419 ft | 420 kts | 305° |
| 2026-04-28 19:40 | 59.00576 | 12.25672 | 38405 ft | 419 kts | 304° |
| 2026-04-28 19:40 | 59.03114 | 12.15448 | 38398 ft | 420 kts | 304° |
| 2026-04-28 19:41 | 59.05640 | 12.05223 | 38395 ft | 420 kts | 304° |
| 2026-04-28 19:41 | 59.08152 | 11.94998 | 38390 ft | 420 kts | 304° |
| 2026-04-28 19:42 | 59.10676 | 11.84683 | 38393 ft | 419 kts | 304° |
| 2026-04-28 19:42 | 59.12756 | 11.76148 | 38400 ft | 420 kts | 304° |
| 2026-04-28 19:43 | 59.15667 | 11.64137 | 38408 ft | 420 kts | 304° |
| 2026-04-28 19:43 | 59.18145 | 11.53863 | 38403 ft | 420 kts | 304° |
| 2026-04-28 19:44 | 59.20627 | 11.43531 | 38409 ft | 420 kts | 304° |
| 2026-04-28 19:44 | 59.23097 | 11.33188 | 38408 ft | 418 kts | 303° |
| 2026-04-28 19:45 | 59.25537 | 11.22795 | 38407 ft | 423 kts | 300° |
| 2026-04-28 19:45 | 59.27471 | 11.11831 | 38414 ft | 427 kts | 297° |
| 2026-04-28 19:46 | 59.29305 | 11.00823 | 38410 ft | 427 kts | 297° |
| 2026-04-28 19:46 | 59.31161 | 10.89698 | 38413 ft | 429 kts | 297° |
| 2026-04-28 19:47 | 59.33004 | 10.78632 | 38421 ft | 428 kts | 297° |
| 2026-04-28 19:47 | 59.34836 | 10.67585 | 38413 ft | 426 kts | 297° |
| 2026-04-28 19:48 | 59.36669 | 10.56492 | 38427 ft | 427 kts | 297° |
| 2026-04-28 19:48 | 59.38487 | 10.45423 | 38448 ft | 426 kts | 297° |
| 2026-04-28 19:49 | 59.40291 | 10.34371 | 38435 ft | 427 kts | 296° |
| 2026-04-28 19:49 | 59.42097 | 10.23227 | 38415 ft | 427 kts | 296° |
| 2026-04-28 19:50 | 59.44777 | 10.06578 | 38395 ft | 427 kts | 296° |
| 2026-04-28 19:51 | 59.46548 | 9.95478 | 38395 ft | 426 kts | 296° |
| 2026-04-28 19:51 | 59.48318 | 9.84318 | 38404 ft | 427 kts | 296° |
| 2026-04-28 19:52 | 59.50073 | 9.73174 | 38399 ft | 427 kts | 296° |
| 2026-04-28 19:52 | 59.51820 | 9.62011 | 38380 ft | 427 kts | 296° |
| 2026-04-28 19:53 | 59.53573 | 9.50752 | 38375 ft | 427 kts | 296° |
| 2026-04-28 19:53 | 59.55297 | 9.39593 | 38389 ft | 427 kts | 296° |
| 2026-04-28 19:54 | 59.57215 | 9.28561 | 38395 ft | 421 kts | 302° |
| 2026-04-28 19:54 | 59.59700 | 9.18162 | 38334 ft | 417 kts | 304° |
| 2026-04-28 19:55 | 59.62215 | 9.07869 | 38132 ft | 417 kts | 304° |
| 2026-04-28 19:55 | 59.63479 | 9.02659 | 37909 ft | 417 kts | 304° |
| 2026-04-28 19:55 | 59.64727 | 8.97487 | 37429 ft | 415 kts | 304° |
| 2026-04-28 19:55 | 59.65953 | 8.92375 | 36883 ft | 412 kts | 304° |
| 2026-04-28 19:56 | 59.67180 | 8.87255 | 36357 ft | 411 kts | 304° |
| 2026-04-28 19:56 | 59.68396 | 8.82115 | 35778 ft | 411 kts | 304° |
| 2026-04-28 19:56 | 59.69586 | 8.77029 | 35165 ft | 412 kts | 304° |
| 2026-04-28 19:56 | 59.70793 | 8.71829 | 34380 ft | 415 kts | 304° |
| 2026-04-28 19:57 | 59.71998 | 8.66682 | 33628 ft | 416 kts | 304° |
| 2026-04-28 19:57 | 59.73219 | 8.61469 | 32912 ft | 415 kts | 304° |
| 2026-04-28 19:57 | 59.74436 | 8.56315 | 32232 ft | 414 kts | 304° |
| 2026-04-28 19:57 | 59.75651 | 8.51185 | 31724 ft | 408 kts | 304° |
| 2026-04-28 19:58 | 59.76843 | 8.46161 | 31214 ft | 403 kts | 304° |
| 2026-04-28 19:58 | 59.78036 | 8.41144 | 30741 ft | 399 kts | 304° |
| 2026-04-28 19:58 | 59.79211 | 8.36200 | 30244 ft | 397 kts | 304° |
| 2026-04-28 19:58 | 59.80383 | 8.31235 | 29756 ft | 396 kts | 302° |
| 2026-04-28 19:59 | 59.81266 | 8.25951 | 29241 ft | 404 kts | 292° |
| 2026-04-28 19:59 | 59.81876 | 8.20478 | 28633 ft | 405 kts | 290° |
| 2026-04-28 19:59 | 59.82436 | 8.15024 | 28013 ft | 404 kts | 290° |
| 2026-04-28 19:59 | 59.82992 | 8.09627 | 27474 ft | 400 kts | 290° |
| 2026-04-28 20:00 | 59.83556 | 8.04240 | 27015 ft | 394 kts | 290° |
| 2026-04-28 20:00 | 59.84123 | 7.98908 | 26533 ft | 390 kts | 291° |
| 2026-04-28 20:00 | 59.84678 | 7.93724 | 26093 ft | 385 kts | 291° |
| 2026-04-28 20:00 | 59.85236 | 7.88527 | 25657 ft | 380 kts | 291° |
| 2026-04-28 20:01 | 59.85781 | 7.83458 | 25236 ft | 374 kts | 291° |
| 2026-04-28 20:01 | 59.86327 | 7.78394 | 24809 ft | 370 kts | 291° |
| 2026-04-28 20:01 | 59.86858 | 7.73449 | 24377 ft | 366 kts | 291° |
| 2026-04-28 20:01 | 59.87391 | 7.68474 | 23943 ft | 363 kts | 291° |
| 2026-04-28 20:02 | 59.87915 | 7.63581 | 23513 ft | 360 kts | 291° |
| 2026-04-28 20:02 | 59.88432 | 7.58745 | 23078 ft | 357 kts | 291° |
| 2026-04-28 20:02 | 59.88937 | 7.53988 | 22656 ft | 355 kts | 291° |
| 2026-04-28 20:02 | 59.89449 | 7.49158 | 22184 ft | 354 kts | 291° |
| 2026-04-28 20:03 | 59.89954 | 7.44378 | 21737 ft | 352 kts | 291° |
| 2026-04-28 20:03 | 59.90455 | 7.39613 | 21299 ft | 351 kts | 291° |
| 2026-04-28 20:03 | 59.90956 | 7.34816 | 20851 ft | 350 kts | 290° |
| 2026-04-28 20:03 | 59.91444 | 7.30143 | 20403 ft | 349 kts | 290° |
| 2026-04-28 20:04 | 59.91934 | 7.25419 | 19959 ft | 348 kts | 289° |
| 2026-04-28 20:04 | 59.92429 | 7.20641 | 19505 ft | 347 kts | 289° |
| 2026-04-28 20:04 | 59.92911 | 7.15960 | 19078 ft | 346 kts | 289° |
| 2026-04-28 20:04 | 59.93391 | 7.11279 | 18633 ft | 345 kts | 289° |
| 2026-04-28 20:05 | 59.93873 | 7.06569 | 18188 ft | 344 kts | 289° |
| 2026-04-28 20:05 | 59.94349 | 7.01900 | 17756 ft | 342 kts | 289° |
| 2026-04-28 20:05 | 59.94819 | 6.97257 | 17314 ft | 341 kts | 289° |
| 2026-04-28 20:05 | 59.95283 | 6.92678 | 16879 ft | 340 kts | 289° |
| 2026-04-28 20:06 | 59.95750 | 6.88029 | 16458 ft | 339 kts | 289° |
| 2026-04-28 20:06 | 59.96215 | 6.83402 | 16019 ft | 338 kts | 289° |
| 2026-04-28 20:06 | 59.96672 | 6.78840 | 15600 ft | 337 kts | 289° |
| 2026-04-28 20:06 | 59.97132 | 6.74223 | 15152 ft | 337 kts | 288° |
| 2026-04-28 20:07 | 59.97586 | 6.69652 | 14721 ft | 336 kts | 288° |
| 2026-04-28 20:07 | 59.97890 | 6.66580 | 14437 ft | 335 kts | 288° |
| 2026-04-28 20:07 | 59.98488 | 6.60516 | 13854 ft | 334 kts | 288° |
| 2026-04-28 20:07 | 59.98930 | 6.56004 | 13430 ft | 333 kts | 288° |
| 2026-04-28 20:08 | 59.99374 | 6.51454 | 12991 ft | 332 kts | 287° |
| 2026-04-28 20:08 | 59.99813 | 6.46956 | 12558 ft | 331 kts | 287° |
| 2026-04-28 20:08 | 60.00252 | 6.42418 | 12136 ft | 329 kts | 287° |
| 2026-04-28 20:08 | 60.00684 | 6.37952 | 11711 ft | 328 kts | 287° |
| 2026-04-28 20:09 | 60.01113 | 6.33496 | 11284 ft | 326 kts | 286° |
| 2026-04-28 20:09 | 60.01539 | 6.29037 | 10853 ft | 324 kts | 285° |
| 2026-04-28 20:09 | 60.01962 | 6.24605 | 10548 ft | 318 kts | 285° |
| 2026-04-28 20:09 | 60.02361 | 6.20364 | 10410 ft | 306 kts | 285° |
| 2026-04-28 20:10 | 60.02746 | 6.16268 | 10266 ft | 297 kts | 286° |
| 2026-04-28 20:10 | 60.03133 | 6.12186 | 9924 ft | 296 kts | 286° |
| 2026-04-28 20:10 | 60.03513 | 6.08163 | 9662 ft | 291 kts | 285° |
| 2026-04-28 20:10 | 60.03889 | 6.04168 | 9313 ft | 290 kts | 285° |
| 2026-04-28 20:11 | 60.04259 | 6.00231 | 8920 ft | 290 kts | 285° |
| 2026-04-28 20:11 | 60.04631 | 5.96248 | 8628 ft | 285 kts | 285° |
| 2026-04-28 20:11 | 60.04989 | 5.92378 | 8265 ft | 284 kts | 285° |
| 2026-04-28 20:11 | 60.05351 | 5.88485 | 7865 ft | 284 kts | 285° |
| 2026-04-28 20:12 | 60.05704 | 5.84641 | 7581 ft | 280 kts | 285° |
| 2026-04-28 20:12 | 60.06059 | 5.80775 | 7182 ft | 280 kts | 285° |
| 2026-04-28 20:12 | 60.06408 | 5.76980 | 6862 ft | 277 kts | 285° |
| 2026-04-28 20:12 | 60.06639 | 5.74448 | 6669 ft | 275 kts | 285° |
| 2026-04-28 20:13 | 60.07093 | 5.69445 | 6156 ft | 272 kts | 285° |
| 2026-04-28 20:13 | 60.07430 | 5.65717 | 5746 ft | 267 kts | 285° |
| 2026-04-28 20:13 | 60.07758 | 5.62092 | 5373 ft | 261 kts | 285° |
| 2026-04-28 20:13 | 60.08073 | 5.58575 | 5034 ft | 256 kts | 285° |
| 2026-04-28 20:14 | 60.08385 | 5.55098 | 4712 ft | 253 kts | 285° |
| 2026-04-28 20:14 | 60.08697 | 5.51620 | 4388 ft | 253 kts | 285° |
| 2026-04-28 20:14 | 60.09002 | 5.48193 | 4222 ft | 243 kts | 285° |
| 2026-04-28 20:14 | 60.09290 | 5.44929 | 4140 ft | 230 kts | 285° |
| 2026-04-28 20:15 | 60.09563 | 5.41836 | 4049 ft | 222 kts | 286° |
| 2026-04-28 20:15 | 60.09845 | 5.38801 | 3804 ft | 221 kts | 286° |
| 2026-04-28 20:15 | 60.10134 | 5.35771 | 3517 ft | 222 kts | 286° |
| 2026-04-28 20:15 | 60.10426 | 5.32700 | 3233 ft | 224 kts | 285° |
| 2026-04-28 20:16 | 60.10894 | 5.29825 | 2993 ft | 214 kts | 309° |
| 2026-04-28 20:16 | 60.11968 | 5.28053 | 2997 ft | 194 kts | 338° |
| 2026-04-28 20:16 | 60.13225 | 5.27237 | 3019 ft | 186 kts | 349° |
| 2026-04-28 20:16 | 60.14453 | 5.26778 | 2982 ft | 174 kts | 352° |
| 2026-04-28 20:17 | 60.15629 | 5.26409 | 2736 ft | 170 kts | 352° |
| 2026-04-28 20:17 | 60.16788 | 5.26039 | 2510 ft | 163 kts | 351° |
| 2026-04-28 20:17 | 60.17867 | 5.25682 | 2281 ft | 149 kts | 351° |
| 2026-04-28 20:17 | 60.18839 | 5.25352 | 2051 ft | 135 kts | 351° |
| 2026-04-28 20:18 | 60.19737 | 5.25049 | 1868 ft | 131 kts | 351° |
| 2026-04-28 20:18 | 60.20344 | 5.24844 | 1751 ft | 130 kts | 350° |
| 2026-04-28 20:18 | 60.21538 | 5.24441 | 1529 ft | 130 kts | 349° |
| 2026-04-28 20:18 | 60.22429 | 5.24141 | 1362 ft | 130 kts | 349° |
| 2026-04-28 20:19 | 60.23311 | 5.23842 | 1194 ft | 129 kts | 349° |
| 2026-04-28 20:19 | 60.24199 | 5.23544 | 1009 ft | 129 kts | 349° |
| 2026-04-28 20:19 | 60.25085 | 5.23228 | 822 ft | 128 kts | 348° |
| 2026-04-28 20:19 | 60.25961 | 5.22923 | 613 ft | 128 kts | 350° |
| 2026-04-28 20:20 | 60.26841 | 5.22641 | 465 ft | 128 kts | 349° |
| 2026-04-28 20:20 | 60.27716 | 5.22347 | 278 ft | 127 kts | 350° |
| 2026-04-28 20:20 | 60.28593 | 5.22057 | 162 ft | 127 kts | 349° |
| 2026-04-28 20:20 | 60.29332 | 5.21816 | 149 ft | 82 kts | 350° |
| 2026-04-28 20:21 | 60.29726 | 5.21682 | 141 ft | 33 kts | 351° |
| 2026-04-28 20:21 | 60.29934 | 5.21612 | 147 ft | 23 kts | 349° |
| 2026-04-28 20:21 | 60.30019 | 5.21624 | 150 ft | 10 kts | 42° |
| 2026-04-28 20:21 | 60.30042 | 5.21767 | 151 ft | 11 kts | 80° |
| 2026-04-28 20:22 | 60.30014 | 5.21903 | 151 ft | 12 kts | 156° |
| 2026-04-28 20:22 | 60.29920 | 5.21941 | 150 ft | 14 kts | 171° |
| 2026-04-28 20:22 | 60.29810 | 5.21977 | 148 ft | 16 kts | 169° |
| 2026-04-28 20:22 | 60.29688 | 5.22019 | 147 ft | 18 kts | 171° |
| 2026-04-28 20:23 | 60.29561 | 5.22055 | 149 ft | 17 kts | 172° |
| 2026-04-28 20:23 | 60.29442 | 5.22100 | 153 ft | 16 kts | 169° |
| 2026-04-28 20:23 | 60.29333 | 5.22138 | 156 ft | 15 kts | 170° |
| 2026-04-28 20:23 | 60.29228 | 5.22173 | 158 ft | 14 kts | 170° |
| 2026-04-28 20:24 | 60.29131 | 5.22206 | 161 ft | 13 kts | 170° |
| 2026-04-28 20:24 | 60.29038 | 5.22238 | 163 ft | 13 kts | 170° |
| 2026-04-28 20:24 | 60.28963 | 5.22264 | 165 ft | 8 kts | 164° |
| 2026-04-28 20:24 | 60.28929 | 5.22351 | 167 ft | 4 kts | 106° |
| 2026-04-28 20:25 | 60.28931 | 5.22388 | 167 ft | 2 kts | 70° |
| 2026-04-28 20:25 | 60.28939 | 5.22438 | 168 ft | 3 kts | 86° |
| 2026-04-28 20:25 | 60.28937 | 5.22483 | 169 ft | 2 kts | 105° |
| 2026-04-28 20:25 | 60.28932 | 5.22517 | 170 ft | 2 kts | 106° |
| 2026-04-28 20:26 | 60.28930 | 5.22536 | 170 ft | 1 kts | 107° |
| 2026-04-28 20:26 | 60.28928 | 5.22544 | 170 ft | 0 kts | 107° |